createdAt,value
2023-02-07T00:04:33.476Z,11.9
2023-02-07T00:19:51.744Z,10.8
2023-02-07T00:35:00.979Z,11.8
2023-02-07T00:50:09.552Z,11
2023-02-07T01:05:25.261Z,13.5
2023-02-07T01:20:35.076Z,13.5
2023-02-07T01:35:44.829Z,12.1
2023-02-07T01:50:54.254Z,11.8
2023-02-07T02:06:04.033Z,12.6
2023-02-07T02:21:13.380Z,12.6
2023-02-07T02:36:22.483Z,12.5
2023-02-07T02:51:34.908Z,12.5
2023-02-07T03:06:44.386Z,12.3
2023-02-07T03:21:53.569Z,13.6
2023-02-07T03:37:02.974Z,12.5
2023-02-07T03:52:12.678Z,12.6
2023-02-07T04:07:21.996Z,13.9
2023-02-07T04:22:31.849Z,13.6
2023-02-07T04:37:41.048Z,14.8
2023-02-07T04:52:50.612Z,15.4
2023-02-07T05:07:59.613Z,18.3
2023-02-07T05:23:09.521Z,16
2023-02-07T05:38:18.948Z,17.2
2023-02-07T05:53:28.459Z,23.5
2023-02-07T06:08:38.263Z,17
2023-02-07T06:23:48.767Z,16.6
2023-02-07T06:39:01.934Z,17.7
2023-02-07T06:54:11.352Z,16.8
2023-02-07T07:09:20.398Z,15.3
2023-02-07T07:24:30.004Z,16.9
2023-02-07T07:39:40.089Z,15.6
2023-02-07T07:54:49.655Z,17.2
2023-02-07T08:10:01.178Z,16.2
2023-02-07T08:25:10.663Z,17.2
2023-02-07T08:40:20.049Z,16.5
2023-02-07T08:55:29.363Z,16.5
2023-02-07T09:10:39.447Z,15.2
2023-02-07T09:25:51.357Z,15.8
2023-02-07T09:41:01.435Z,14.9
2023-02-07T09:56:10.098Z,14.7
2023-02-07T10:11:19.555Z,13.8
2023-02-07T10:26:29.410Z,12.6
2023-02-07T10:41:39.822Z,13.1
2023-02-07T10:56:49.390Z,11.6
2023-02-07T11:11:59.316Z,10.8
2023-02-07T11:27:09.128Z,8.6
2023-02-07T11:42:19.028Z,9.3
2023-02-07T11:57:28.312Z,10.1
2023-02-07T12:12:37.774Z,11.2
2023-02-07T12:27:49.010Z,9.3
2023-02-07T12:43:02.727Z,9.7
2023-02-07T12:58:13.341Z,10.4
2023-02-07T13:13:23.020Z,9.7
2023-02-07T13:28:32.486Z,9
2023-02-07T13:43:46.156Z,6.3
2023-02-07T13:58:55.993Z,7.8
2023-02-07T14:14:05.267Z,6.5
2023-02-07T14:29:13.744Z,7.8
2023-02-07T14:44:21.979Z,8
2023-02-07T14:59:31.156Z,7.2
2023-02-07T15:14:41.095Z,9
2023-02-07T15:29:50.267Z,9.4
2023-02-07T15:44:59.576Z,10.1
2023-02-07T16:00:09.385Z,11.9
2023-02-07T16:15:18.438Z,11.2
2023-02-07T16:30:28.115Z,13.1
2023-02-07T16:45:40.187Z,12.8
2023-02-07T17:00:50.515Z,10.8
2023-02-07T17:16:02.545Z,12.6
2023-02-07T17:31:12.773Z,12.9
2023-02-07T17:46:22.435Z,12.3
2023-02-07T18:01:33.202Z,12.2
2023-02-07T18:16:43.274Z,12.8
2023-02-07T18:31:52.747Z,12.3
2023-02-07T18:47:02.006Z,14.2
2023-02-07T19:02:11.844Z,16.3
2023-02-07T19:17:21.281Z,15.4
2023-02-07T19:32:34.454Z,16
2023-02-07T19:47:43.870Z,16.1
2023-02-07T20:02:53.214Z,14.8
2023-02-07T20:18:03.584Z,16
2023-02-07T20:33:13.277Z,16.6
2023-02-07T20:48:23.438Z,14.7
2023-02-07T21:03:32.839Z,16.4
2023-02-07T21:18:42.288Z,17.9
2023-02-07T21:33:51.621Z,17.4
2023-02-07T21:49:01.896Z,18.7
2023-02-07T22:04:11.397Z,19.9
2023-02-07T22:19:20.853Z,19.8
2023-02-07T22:34:30.419Z,21.1
2023-02-07T22:49:39.935Z,22
2023-02-07T23:04:49.924Z,19.4
2023-02-07T23:20:01.007Z,18.9
2023-02-07T23:35:10.709Z,18.7
2023-02-07T23:50:20.353Z,20.7
